createdAt,value
2017-11-12T00:01:32.169Z,34.27
2017-11-12T00:04:01.919Z,31.27
2017-11-12T00:06:30.214Z,34.60
2017-11-12T00:08:58.916Z,33.70
2017-11-12T00:11:28.231Z,34.00
2017-11-12T00:13:56.927Z,35.07
2017-11-12T00:16:25.219Z,32.10
2017-11-12T00:18:53.575Z,33.63
2017-11-12T00:21:23.384Z,32.80
2017-11-12T00:23:51.663Z,32.57
2017-11-12T00:26:20.007Z,30.93
2017-11-12T00:28:48.281Z,34.17
2017-11-12T00:31:16.568Z,33.73
2017-11-12T00:33:45.303Z,30.67
2017-11-12T00:36:13.991Z,32.60
2017-11-12T00:38:43.411Z,34.47
2017-11-12T00:41:12.531Z,31.47
2017-11-12T00:43:42.180Z,30.77
2017-11-12T00:46:11.472Z,31.53
2017-11-12T00:48:40.259Z,30.60
2017-11-12T00:51:09.672Z,32.17
2017-11-12T00:53:37.948Z,34.00
2017-11-12T00:56:07.052Z,33.00
2017-11-12T00:58:36.472Z,33.40
2017-11-12T01:01:05.148Z,32.93
2017-11-12T01:03:33.477Z,31.60
2017-11-12T01:06:01.780Z,32.37
2017-11-12T01:08:31.564Z,30.90
2017-11-12T01:11:00.023Z,29.90
2017-11-12T01:13:28.299Z,29.97
2017-11-12T01:15:56.588Z,30.73
2017-11-12T01:18:25.510Z,31.43
2017-11-12T01:20:54.189Z,32.10
2017-11-12T01:23:22.493Z,35.23
2017-11-12T01:25:50.860Z,32.30
2017-11-12T01:28:19.919Z,30.20
2017-11-12T01:30:49.350Z,29.77
2017-11-12T01:33:18.559Z,28.40
2017-11-12T01:35:47.611Z,27.27
2017-11-12T01:38:15.910Z,28.00
2017-11-12T01:40:45.144Z,30.87
2017-11-12T01:43:13.423Z,29.80
2017-11-12T01:45:41.770Z,29.57
2017-11-12T01:48:11.237Z,29.53
2017-11-12T01:50:39.520Z,29.67
2017-11-12T01:53:07.811Z,30.30
2017-11-12T01:55:36.984Z,29.80
2017-11-12T01:58:06.423Z,32.80
2017-11-12T02:00:34.702Z,31.70
2017-11-12T02:03:03.037Z,28.30
2017-11-12T02:05:32.451Z,29.87
2017-11-12T02:08:02.087Z,29.10
2017-11-12T02:10:34.605Z,30.50
2017-11-12T02:13:02.884Z,31.20
2017-11-12T02:15:31.160Z,29.07
2017-11-12T02:17:59.492Z,26.97
2017-11-12T02:20:27.776Z,27.43
2017-11-12T02:22:56.824Z,28.00
2017-11-12T02:25:28.508Z,30.60
2017-11-12T02:27:57.186Z,29.80
2017-11-12T02:30:25.468Z,28.70
2017-11-12T02:32:53.811Z,27.83
2017-11-12T02:35:24.126Z,28.43
2017-11-12T02:37:52.414Z,29.40
2017-11-12T02:40:21.564Z,29.97
2017-11-12T02:42:49.863Z,29.60
2017-11-12T02:45:18.142Z,27.73
2017-11-12T02:47:46.582Z,28.47
2017-11-12T02:50:14.870Z,29.77
2017-11-12T02:52:44.280Z,28.80
2017-11-12T02:55:13.398Z,29.00
2017-11-12T02:57:43.199Z,31.77
2017-11-12T03:00:12.261Z,32.70
2017-11-12T03:02:41.348Z,33.80
2017-11-12T03:05:10.035Z,33.50
2017-11-12T03:07:38.819Z,35.30
2017-11-12T03:10:07.145Z,40.57
2017-11-12T03:12:35.420Z,36.70
2017-11-12T03:15:03.703Z,35.43
2017-11-12T03:17:33.423Z,36.70
2017-11-12T03:20:01.588Z,35.73
2017-11-12T03:22:29.898Z,38.10
2017-11-12T03:24:58.226Z,37.30
2017-11-12T03:27:26.506Z,35.47
2017-11-12T03:29:54.786Z,35.10
2017-11-12T03:32:23.123Z,33.57
2017-11-12T03:34:52.543Z,34.77
2017-11-12T03:37:21.217Z,33.70
2017-11-12T03:39:49.534Z,34.90
2017-11-12T03:42:17.841Z,33.30
2017-11-12T03:44:46.516Z,32.90
2017-11-12T03:47:14.919Z,35.43
2017-11-12T03:49:43.199Z,34.93
2017-11-12T03:52:12.982Z,33.80
2017-11-12T03:54:41.327Z,34.13
2017-11-12T03:57:10.976Z,34.63
2017-11-12T03:59:39.151Z,32.37
2017-11-12T04:02:07.494Z,34.57
2017-11-12T04:04:35.775Z,33.47
2017-11-12T04:07:05.407Z,33.20
2017-11-12T04:09:34.020Z,32.70
2017-11-12T04:12:03.064Z,31.10
2017-11-12T04:14:31.362Z,31.60
2017-11-12T04:17:01.955Z,31.13
2017-11-12T04:19:30.111Z,31.97
2017-11-12T04:21:59.176Z,29.30
2017-11-12T04:24:27.519Z,29.50
2017-11-12T04:26:56.191Z,28.77
2017-11-12T04:29:24.494Z,30.33
2017-11-12T04:31:53.651Z,30.00
2017-11-12T04:34:22.704Z,27.57
2017-11-12T04:36:52.344Z,28.10
2017-11-12T04:39:21.828Z,28.37
2017-11-12T04:41:51.458Z,28.00
2017-11-12T04:44:19.614Z,28.70
2017-11-12T04:46:47.959Z,26.77
2017-11-12T04:49:17.011Z,27.23
2017-11-12T04:51:45.294Z,27.07
2017-11-12T04:54:14.012Z,28.23
2017-11-12T04:56:43.056Z,27.30
2017-11-12T04:59:12.471Z,29.87
2017-11-12T05:01:41.200Z,26.90
2017-11-12T05:04:09.496Z,29.27
2017-11-12T05:06:37.793Z,28.60
2017-11-12T05:09:06.548Z,28.80
2017-11-12T05:11:34.855Z,28.90
2017-11-12T05:14:04.665Z,26.90
2017-11-12T05:16:33.011Z,27.80
2017-11-12T05:19:01.306Z,27.83
2017-11-12T05:21:29.585Z,26.50
2017-11-12T05:23:58.064Z,29.33
2017-11-12T05:26:26.353Z,26.90
2017-11-12T05:28:55.392Z,28.83
2017-11-12T05:31:23.753Z,27.10
2017-11-12T05:33:52.062Z,27.70
2017-11-12T05:36:21.119Z,28.07
2017-11-12T05:38:50.212Z,29.37
2017-11-12T05:41:18.492Z,29.80
2017-11-12T05:43:46.774Z,28.53
2017-11-12T05:46:16.481Z,28.87
2017-11-12T05:48:45.037Z,28.90
2017-11-12T05:51:13.323Z,28.27
2017-11-12T05:53:42.998Z,28.23
2017-11-12T05:56:12.297Z,28.97
2017-11-12T05:58:42.039Z,26.83
2017-11-12T06:01:11.542Z,28.30
2017-11-12T06:03:41.319Z,27.20
2017-11-12T06:06:10.995Z,28.60
2017-11-12T06:08:39.201Z,26.17
2017-11-12T06:11:08.219Z,27.87
2017-11-12T06:13:37.703Z,27.77
2017-11-12T06:16:07.487Z,29.97
2017-11-12T06:18:36.164Z,26.80
2017-11-12T06:21:04.504Z,28.60
2017-11-12T06:23:32.802Z,29.57
2017-11-12T06:26:01.115Z,26.90
2017-11-12T06:28:29.855Z,27.07
2017-11-12T06:30:58.914Z,29.00
2017-11-12T06:33:27.203Z,30.90
2017-11-12T06:35:56.329Z,29.63
2017-11-12T06:38:24.624Z,28.97
2017-11-12T06:40:52.922Z,27.70
2017-11-12T06:43:23.136Z,30.33
2017-11-12T06:45:51.701Z,29.47
2017-11-12T06:48:21.487Z,29.47
2017-11-12T06:50:49.818Z,30.27
2017-11-12T06:53:18.107Z,29.80
2017-11-12T06:55:47.180Z,30.37
2017-11-12T06:58:16.451Z,27.70
2017-11-12T07:00:46.240Z,24.00
2017-11-12T07:03:14.518Z,28.77
2017-11-12T07:05:42.848Z,29.33
2017-11-12T07:08:11.535Z,28.67
2017-11-12T07:10:39.821Z,29.13
2017-11-12T07:13:09.533Z,26.97
2017-11-12T07:15:38.111Z,27.60
2017-11-12T07:18:06.410Z,29.40
2017-11-12T07:20:34.748Z,30.03
2017-11-12T07:23:04.179Z,29.23
2017-11-12T07:25:32.460Z,29.03
2017-11-12T07:28:03.527Z,29.20
2017-11-12T07:30:31.687Z,29.43
2017-11-12T07:32:59.974Z,27.87
2017-11-12T07:35:29.060Z,27.00
2017-11-12T07:37:57.340Z,28.60
2017-11-12T07:40:26.403Z,28.53
2017-11-12T07:42:55.516Z,28.10
2017-11-12T07:45:24.207Z,26.10
2017-11-12T07:47:52.488Z,26.63
2017-11-12T07:50:21.593Z,27.07
2017-11-12T07:52:49.874Z,27.00
2017-11-12T07:55:18.152Z,27.83
2017-11-12T07:57:46.508Z,27.43
2017-11-12T08:00:16.295Z,28.50
2017-11-12T08:02:45.972Z,26.17
2017-11-12T08:05:14.172Z,27.83
2017-11-12T08:07:42.456Z,27.90
2017-11-12T08:10:10.792Z,30.20
2017-11-12T08:12:39.072Z,28.03
2017-11-12T08:15:07.347Z,28.43
2017-11-12T08:17:37.189Z,27.03
2017-11-12T08:20:06.249Z,27.63
2017-11-12T08:22:34.947Z,30.43
2017-11-12T08:25:04.428Z,26.77
2017-11-12T08:27:32.710Z,29.97
2017-11-12T08:30:01.395Z,28.13
2017-11-12T08:32:30.141Z,29.50
2017-11-12T08:34:58.827Z,28.33
2017-11-12T08:37:27.500Z,30.17
2017-11-12T08:39:56.398Z,31.23
2017-11-12T08:42:24.682Z,28.40
2017-11-12T08:44:54.322Z,32.37
2017-11-12T08:47:22.523Z,28.50
2017-11-12T08:49:50.838Z,30.63
2017-11-12T08:52:20.251Z,28.93
2017-11-12T08:54:48.613Z,30.87
2017-11-12T08:57:17.660Z,30.03
2017-11-12T08:59:46.712Z,31.70
2017-11-12T09:02:15.457Z,32.40
2017-11-12T09:04:43.753Z,27.87
2017-11-12T09:07:12.036Z,25.27
2017-11-12T09:09:41.991Z,20.23
2017-11-12T09:12:11.411Z,19.90
2017-11-12T09:14:40.475Z,22.87
2017-11-12T09:17:10.010Z,24.40
2017-11-12T09:19:39.444Z,23.80
2017-11-12T09:22:07.743Z,23.73
2017-11-12T09:24:37.442Z,23.57
2017-11-12T09:27:06.400Z,22.40
2017-11-12T09:29:36.031Z,20.97
2017-11-12T09:32:04.317Z,21.10
2017-11-12T09:34:32.592Z,22.30
2017-11-12T09:37:02.390Z,23.27
2017-11-12T09:39:31.496Z,22.33
2017-11-12T09:41:59.784Z,21.87
2017-11-12T09:44:29.223Z,22.77
2017-11-12T09:46:57.964Z,19.47
2017-11-12T09:49:27.758Z,23.63
2017-11-12T09:51:57.398Z,25.90
2017-11-12T09:54:26.396Z,23.13
2017-11-12T09:56:55.064Z,24.07
2017-11-12T09:59:23.384Z,25.13
2017-11-12T10:01:53.067Z,26.03
2017-11-12T10:04:22.004Z,26.27
2017-11-12T10:06:50.276Z,26.90
2017-11-12T10:09:18.616Z,26.40
2017-11-12T10:11:46.931Z,30.03
2017-11-12T10:14:15.220Z,26.27
2017-11-12T10:16:44.326Z,28.97
2017-11-12T10:19:12.605Z,31.13
2017-11-12T10:21:41.277Z,29.20
2017-11-12T10:24:09.590Z,28.30
2017-11-12T10:26:39.023Z,32.33
2017-11-12T10:29:08.671Z,28.37
2017-11-12T10:31:37.681Z,26.90
2017-11-12T10:34:07.319Z,27.23
2017-11-12T10:36:37.180Z,27.80
2017-11-12T10:39:05.491Z,25.10
2017-11-12T10:41:35.136Z,24.10
2017-11-12T10:44:03.353Z,22.73
2017-11-12T10:46:31.643Z,24.40
2017-11-12T10:49:01.427Z,21.37
2017-11-12T10:51:30.937Z,20.37
2017-11-12T10:54:00.587Z,21.33
2017-11-12T10:56:28.746Z,21.63
2017-11-12T10:58:57.090Z,19.20
2017-11-12T11:01:26.141Z,17.73
2017-11-12T11:03:54.420Z,15.17
2017-11-12T11:06:22.756Z,15.60
2017-11-12T11:08:51.458Z,16.73
2017-11-12T11:11:19.743Z,13.87
2017-11-12T11:13:48.861Z,13.70
2017-11-12T11:16:17.534Z,12.60
2017-11-12T11:18:47.191Z,11.20
2017-11-12T11:21:17.729Z,12.47
2017-11-12T11:23:47.028Z,12.57
2017-11-12T11:26:15.326Z,11.93
2017-11-12T11:28:45.030Z,11.07
2017-11-12T11:31:13.589Z,13.10
2017-11-12T11:33:41.876Z,11.73
2017-11-12T11:36:11.569Z,11.70
2017-11-12T11:38:40.514Z,11.10
2017-11-12T11:41:08.803Z,11.47
2017-11-12T11:43:37.141Z,11.83
2017-11-12T11:46:06.930Z,11.70
2017-11-12T11:48:35.214Z,12.43
2017-11-12T11:51:04.319Z,14.63
2017-11-12T11:53:33.016Z,14.17
2017-11-12T11:56:01.303Z,14.73
2017-11-12T11:58:31.001Z,14.63
2017-11-12T12:00:59.955Z,13.20
2017-11-12T12:03:29.012Z,11.70
2017-11-12T12:05:57.351Z,10.50
2017-11-12T12:08:25.671Z,11.40
2017-11-12T12:10:53.980Z,9.70
2017-11-12T12:13:23.594Z,10.70
2017-11-12T12:15:51.915Z,11.23
2017-11-12T12:18:20.237Z,10.83
2017-11-12T12:20:48.563Z,12.03
2017-11-12T12:23:17.987Z,10.90
2017-11-12T12:25:46.281Z,10.20
2017-11-12T12:28:14.607Z,9.53
2017-11-12T12:30:44.396Z,9.30
2017-11-12T12:33:13.441Z,9.93
2017-11-12T12:35:43.259Z,8.90
2017-11-12T12:38:12.887Z,8.30
2017-11-12T12:40:42.379Z,8.53
2017-11-12T12:43:11.344Z,7.90
2017-11-12T12:45:40.964Z,7.40
2017-11-12T12:48:09.119Z,9.23
2017-11-12T12:50:38.863Z,8.40
2017-11-12T12:53:07.411Z,8.47
2017-11-12T12:55:35.695Z,10.03
2017-11-12T12:58:04.039Z,10.10
2017-11-12T13:00:32.324Z,8.63
2017-11-12T13:03:00.608Z,9.40
2017-11-12T13:05:30.104Z,9.73
2017-11-12T13:07:59.738Z,9.23
2017-11-12T13:10:28.311Z,8.40
2017-11-12T13:12:56.678Z,10.37
2017-11-12T13:15:24.982Z,8.40
2017-11-12T13:17:54.608Z,8.10
2017-11-12T13:20:23.197Z,7.33
2017-11-12T13:22:51.476Z,8.03
2017-11-12T13:25:19.772Z,8.63
2017-11-12T13:27:48.860Z,7.37
2017-11-12T13:30:17.145Z,6.47
2017-11-12T13:32:45.427Z,6.77
2017-11-12T13:35:14.504Z,6.63
2017-11-12T13:37:43.196Z,6.47
2017-11-12T13:40:11.457Z,6.90
2017-11-12T13:42:41.139Z,5.80
2017-11-12T13:45:09.693Z,4.70
2017-11-12T13:47:39.332Z,4.90
2017-11-12T13:50:08.690Z,4.50
2017-11-12T13:52:36.963Z,3.60
2017-11-12T13:55:06.403Z,4.30
2017-11-12T13:57:36.084Z,3.90
2017-11-12T14:00:05.593Z,2.87
2017-11-12T14:02:34.161Z,2.80
2017-11-12T14:05:03.612Z,2.83
2017-11-12T14:07:32.646Z,3.20
2017-11-12T14:10:02.076Z,3.23
2017-11-12T14:12:30.383Z,3.63
2017-11-12T14:14:59.063Z,3.47
2017-11-12T14:17:28.849Z,3.00
2017-11-12T14:19:57.232Z,3.70
2017-11-12T14:22:25.508Z,2.80
2017-11-12T14:24:54.572Z,3.00
2017-11-12T14:27:23.681Z,2.70
2017-11-12T14:29:51.952Z,3.10
2017-11-12T14:32:20.239Z,3.00
2017-11-12T14:34:48.555Z,2.60
2017-11-12T14:37:17.591Z,2.77
2017-11-12T14:39:46.653Z,2.30
2017-11-12T14:42:18.428Z,2.83
2017-11-12T14:44:47.107Z,2.17
2017-11-12T14:47:15.419Z,2.87
2017-11-12T14:49:44.520Z,2.07
2017-11-12T14:52:13.932Z,20.83
2017-11-12T14:54:42.631Z,7.67
2017-11-12T14:57:11.749Z,2.90
2017-11-12T14:59:44.722Z,2.20
2017-11-12T15:02:13.044Z,2.40
2017-11-12T15:04:41.311Z,2.30
2017-11-12T15:07:09.602Z,2.67
2017-11-12T15:09:37.958Z,2.27
2017-11-12T15:12:06.237Z,2.40
2017-11-12T15:14:34.512Z,2.57
2017-11-12T15:17:02.836Z,3.03
2017-11-12T15:19:32.242Z,3.13
2017-11-12T15:22:00.527Z,2.90
2017-11-12T15:24:30.020Z,2.33
2017-11-12T15:26:59.062Z,3.20
2017-11-12T15:29:27.332Z,2.47
2017-11-12T15:31:56.436Z,2.87
2017-11-12T15:34:24.711Z,3.10
2017-11-12T15:36:54.523Z,2.97
2017-11-12T15:39:23.275Z,3.00
2017-11-12T15:41:51.553Z,2.90
2017-11-12T15:44:21.368Z,2.87
2017-11-12T15:46:49.705Z,5.50
2017-11-12T15:49:17.995Z,7.10
2017-11-12T15:51:46.266Z,3.33
2017-11-12T15:54:15.953Z,4.20
2017-11-12T15:56:44.105Z,8.07
2017-11-12T15:59:12.402Z,4.63
2017-11-12T16:01:40.720Z,7.20
2017-11-12T16:04:09.772Z,2.73
2017-11-12T16:06:38.816Z,2.53
2017-11-12T16:09:07.171Z,2.73
2017-11-12T16:11:36.216Z,2.80
2017-11-12T16:14:05.854Z,3.03
2017-11-12T16:16:35.399Z,3.80
2017-11-12T16:19:04.459Z,5.43
2017-11-12T16:21:32.732Z,4.10
2017-11-12T16:24:01.446Z,3.20
2017-11-12T16:26:31.242Z,4.47
2017-11-12T16:28:59.509Z,6.70
2017-11-12T16:31:27.823Z,5.30
2017-11-12T16:33:56.103Z,5.73
2017-11-12T16:36:24.391Z,4.60
2017-11-12T16:38:54.064Z,5.70
2017-11-12T16:41:22.222Z,9.10
2017-11-12T16:43:51.628Z,5.40
2017-11-12T16:46:21.328Z,12.90
2017-11-12T16:48:49.903Z,17.33
2017-11-12T16:51:18.184Z,16.57
2017-11-12T16:53:48.043Z,14.47
2017-11-12T16:56:17.693Z,7.23
2017-11-12T16:58:46.255Z,6.70
2017-11-12T17:01:15.923Z,7.07
2017-11-12T17:03:44.491Z,6.10
2017-11-12T17:06:12.761Z,9.00
2017-11-12T17:08:41.910Z,8.00
2017-11-12T17:11:11.346Z,6.90
2017-11-12T17:13:40.966Z,6.90
2017-11-12T17:16:09.299Z,5.90
2017-11-12T17:18:37.572Z,6.00
2017-11-12T17:21:06.615Z,6.53
2017-11-12T17:23:36.287Z,7.23
2017-11-12T17:26:04.457Z,6.23
2017-11-12T17:28:32.732Z,6.40
2017-11-12T17:31:02.180Z,7.47
2017-11-12T17:33:31.803Z,7.10
2017-11-12T17:35:59.974Z,7.77
2017-11-12T17:38:28.299Z,7.57
2017-11-12T17:40:56.588Z,7.93
2017-11-12T17:43:24.864Z,7.87
2017-11-12T17:45:53.191Z,8.80
2017-11-12T17:48:21.477Z,7.97
2017-11-12T17:50:49.753Z,9.63
2017-11-12T17:53:18.859Z,8.00
2017-11-12T17:55:47.136Z,6.80
2017-11-12T17:58:16.764Z,7.80
2017-11-12T18:00:46.315Z,7.00
2017-11-12T18:03:15.821Z,7.80
2017-11-12T18:05:43.972Z,6.10
2017-11-12T18:08:12.308Z,7.90
2017-11-12T18:10:40.583Z,7.30
2017-11-12T18:13:09.629Z,6.97
2017-11-12T18:15:37.976Z,8.03
2017-11-12T18:18:06.268Z,7.80
2017-11-12T18:20:35.931Z,7.00
2017-11-12T18:23:04.921Z,6.73
2017-11-12T18:25:33.965Z,7.27
2017-11-12T18:28:02.240Z,7.40
2017-11-12T18:30:31.347Z,6.73
2017-11-12T18:33:00.391Z,7.73
2017-11-12T18:35:28.700Z,7.97
2017-11-12T18:37:57.024Z,6.90
2017-11-12T18:40:25.296Z,7.80
2017-11-12T18:42:53.595Z,8.27
2017-11-12T18:45:23.299Z,8.17
2017-11-12T18:47:51.853Z,8.50
2017-11-12T18:50:20.163Z,7.50
2017-11-12T18:52:48.918Z,7.50
2017-11-12T18:55:32.902Z,7.60
2017-11-12T18:58:02.002Z,8.27
2017-11-12T19:00:36.046Z,7.97
2017-11-12T19:03:05.965Z,9.00
2017-11-12T19:05:39.916Z,8.57
2017-11-12T19:08:08.243Z,10.40
2017-11-12T19:10:38.032Z,10.00
2017-11-12T19:13:06.315Z,10.80
2017-11-12T19:15:34.665Z,8.43
2017-11-12T19:18:06.420Z,9.33
2017-11-12T19:23:35.439Z,9.37
2017-11-12T19:26:11.040Z,10.00
2017-11-12T19:28:43.062Z,8.63
2017-11-12T19:31:12.136Z,8.83
2017-11-12T19:33:41.796Z,9.70
2017-11-12T19:36:11.460Z,8.37
2017-11-12T19:38:39.800Z,10.80
2017-11-12T19:41:09.586Z,9.90
2017-11-12T19:43:37.872Z,8.73
2017-11-12T19:46:06.244Z,11.47
2017-11-12T19:48:35.885Z,10.03
2017-11-12T19:51:04.049Z,10.20
2017-11-12T19:53:32.397Z,13.70
2017-11-12T19:56:00.687Z,9.80
2017-11-12T19:58:30.486Z,9.47
2017-11-12T20:00:59.214Z,10.90
2017-11-12T20:03:27.495Z,9.90
2017-11-12T20:05:55.782Z,10.27
2017-11-12T20:08:24.130Z,9.80
2017-11-12T20:10:53.575Z,9.20
2017-11-12T20:13:22.989Z,10.13
2017-11-12T20:15:52.108Z,9.57
2017-11-12T20:18:21.460Z,9.87
2017-11-12T20:20:49.751Z,10.07
2017-11-12T20:23:19.595Z,10.93
2017-11-12T20:25:47.920Z,10.77
2017-11-12T20:28:16.196Z,9.73
2017-11-12T20:30:46.020Z,11.63
2017-11-12T20:33:14.194Z,11.10
2017-11-12T20:35:42.737Z,11.10
2017-11-12T20:38:12.198Z,11.00
2017-11-12T20:40:40.490Z,11.17
2017-11-12T20:43:08.781Z,12.10
2017-11-12T20:45:37.515Z,11.63
2017-11-12T20:48:05.792Z,10.93
2017-11-12T20:50:35.208Z,11.60
2017-11-12T20:53:04.662Z,10.50
2017-11-12T20:55:32.948Z,11.80
2017-11-12T20:58:02.024Z,11.93
2017-11-12T21:00:31.139Z,11.90
2017-11-12T21:02:59.426Z,12.00
2017-11-12T21:05:29.062Z,12.03
2017-11-12T21:07:57.839Z,11.97
2017-11-12T21:10:27.636Z,12.83
2017-11-12T21:12:55.917Z,12.40
2017-11-12T21:15:24.424Z,12.93
2017-11-12T21:17:52.708Z,13.40
2017-11-12T21:20:25.056Z,12.07
2017-11-12T21:22:53.332Z,12.10
2017-11-12T21:25:22.390Z,12.00
2017-11-12T21:27:51.653Z,11.87
2017-11-12T21:30:21.651Z,12.10
2017-11-12T21:32:52.313Z,12.13
2017-11-12T21:35:22.878Z,11.30
2017-11-12T21:37:54.583Z,11.17
2017-11-12T21:40:22.877Z,11.20
2017-11-12T21:42:52.520Z,11.40
2017-11-12T21:45:22.102Z,13.30
2017-11-12T21:47:51.394Z,11.70
2017-11-12T21:50:19.671Z,14.50
2017-11-12T21:52:48.040Z,13.50
2017-11-12T21:55:16.332Z,14.20
2017-11-12T21:57:44.606Z,14.20
2017-11-12T22:00:13.053Z,13.97
2017-11-12T22:02:42.858Z,14.13
2017-11-12T22:05:11.141Z,13.70
2017-11-12T22:07:40.839Z,11.77
2017-11-12T22:10:08.986Z,10.83
2017-11-12T22:12:37.291Z,11.03
2017-11-12T22:15:05.611Z,10.27
2017-11-12T22:17:34.662Z,10.13
2017-11-12T22:20:02.959Z,10.67
2017-11-12T22:22:32.415Z,9.07
2017-11-12T22:25:02.215Z,8.97
2017-11-12T22:27:31.907Z,9.83
2017-11-12T22:30:01.197Z,8.87
2017-11-12T22:32:29.480Z,8.70
2017-11-12T22:34:57.795Z,8.83
2017-11-12T22:37:26.072Z,8.37
2017-11-12T22:39:54.339Z,7.50
2017-11-12T22:42:22.667Z,8.50
2017-11-12T22:44:52.087Z,8.20
2017-11-12T22:47:20.387Z,9.20
2017-11-12T22:49:48.730Z,8.10
2017-11-12T22:52:16.996Z,7.87
2017-11-12T22:54:45.266Z,7.57
2017-11-12T22:57:13.618Z,6.93
2017-11-12T22:59:42.287Z,7.23
2017-11-12T23:02:11.697Z,7.80
2017-11-12T23:04:41.386Z,7.60
2017-11-12T23:07:10.890Z,8.23
2017-11-12T23:09:40.395Z,6.90
2017-11-12T23:12:08.981Z,7.40
2017-11-12T23:14:37.249Z,5.77
2017-11-12T23:17:06.288Z,6.57
2017-11-12T23:19:35.971Z,5.50
2017-11-12T23:22:05.261Z,6.63
2017-11-12T23:24:33.532Z,5.00
2017-11-12T23:27:02.156Z,5.50
2017-11-12T23:29:30.429Z,5.57
2017-11-12T23:31:58.716Z,5.97
2017-11-12T23:34:27.032Z,4.60
2017-11-12T23:36:55.299Z,4.90
2017-11-12T23:39:25.095Z,5.50
2017-11-12T23:41:53.427Z,4.43
2017-11-12T23:44:21.692Z,4.90
2017-11-12T23:46:51.324Z,4.03
2017-11-12T23:49:20.895Z,4.87
2017-11-12T23:51:49.051Z,3.80
2017-11-12T23:54:17.384Z,4.27
2017-11-12T23:56:45.695Z,3.73
2017-11-12T23:59:13.970Z,4.57
